sensor_id;sensor_type;location;lat;lon;timestamp;P1;durP1;ratioP1;P2;durP2;ratioP2
9970;SDS011;5026;51.494;11.974;2023-02-23T00:00:30;33.37;;;15.80;;
9970;SDS011;5026;51.494;11.974;2023-02-23T00:02:58;32.67;;;15.87;;
9970;SDS011;5026;51.494;11.974;2023-02-23T00:05:26;33.30;;;16.57;;
9970;SDS011;5026;51.494;11.974;2023-02-23T00:07:54;36.03;;;16.23;;
9970;SDS011;5026;51.494;11.974;2023-02-23T00:10:22;30.17;;;15.70;;
9970;SDS011;5026;51.494;11.974;2023-02-23T00:12:55;30.00;;;16.10;;
9970;SDS011;5026;51.494;11.974;2023-02-23T00:15:23;27.70;;;15.80;;
9970;SDS011;5026;51.494;11.974;2023-02-23T00:17:51;31.77;;;16.30;;
9970;SDS011;5026;51.494;11.974;2023-02-23T00:20:19;37.77;;;16.23;;
9970;SDS011;5026;51.494;11.974;2023-02-23T00:22:51;31.83;;;15.57;;
9970;SDS011;5026;51.494;11.974;2023-02-23T00:25:19;31.60;;;16.37;;
9970;SDS011;5026;51.494;11.974;2023-02-23T00:27:46;28.40;;;16.20;;
9970;SDS011;5026;51.494;11.974;2023-02-23T00:30:16;32.97;;;15.53;;
9970;SDS011;5026;51.494;11.974;2023-02-23T00:32:44;30.77;;;16.03;;
9970;SDS011;5026;51.494;11.974;2023-02-23T00:35:11;28.00;;;15.63;;
9970;SDS011;5026;51.494;11.974;2023-02-23T00:37:43;31.90;;;15.07;;
9970;SDS011;5026;51.494;11.974;2023-02-23T00:40:11;28.73;;;16.03;;
9970;SDS011;5026;51.494;11.974;2023-02-23T00:42:41;32.27;;;14.30;;
9970;SDS011;5026;51.494;11.974;2023-02-23T00:45:09;33.80;;;15.63;;
9970;SDS011;5026;51.494;11.974;2023-02-23T00:47:39;29.43;;;15.27;;
9970;SDS011;5026;51.494;11.974;2023-02-23T00:50:09;27.33;;;14.50;;
9970;SDS011;5026;51.494;11.974;2023-02-23T00:52:39;28.03;;;15.07;;
9970;SDS011;5026;51.494;11.974;2023-02-23T00:55:07;27.93;;;15.10;;
9970;SDS011;5026;51.494;11.974;2023-02-23T00:57:35;27.20;;;15.47;;
9970;SDS011;5026;51.494;11.974;2023-02-23T01:00:02;31.67;;;15.17;;
9970;SDS011;5026;51.494;11.974;2023-02-23T01:02:40;30.67;;;15.67;;
9970;SDS011;5026;51.494;11.974;2023-02-23T01:05:07;33.53;;;15.87;;
9970;SDS011;5026;51.494;11.974;2023-02-23T01:07:36;28.90;;;15.33;;
9970;SDS011;5026;51.494;11.974;2023-02-23T01:10:03;28.87;;;14.67;;
9970;SDS011;5026;51.494;11.974;2023-02-23T01:12:43;26.13;;;14.60;;
9970;SDS011;5026;51.494;11.974;2023-02-23T01:15:11;30.60;;;15.37;;
9970;SDS011;5026;51.494;11.974;2023-02-23T01:17:40;33.40;;;15.97;;
9970;SDS011;5026;51.494;11.974;2023-02-23T01:20:08;34.17;;;16.40;;
9970;SDS011;5026;51.494;11.974;2023-02-23T01:22:41;28.70;;;14.70;;
9970;SDS011;5026;51.494;11.974;2023-02-23T01:25:09;27.53;;;13.97;;
9970;SDS011;5026;51.494;11.974;2023-02-23T01:27:37;27.43;;;14.03;;
9970;SDS011;5026;51.494;11.974;2023-02-23T01:30:04;24.60;;;13.73;;
9970;SDS011;5026;51.494;11.974;2023-02-23T01:32:33;30.47;;;15.40;;
9970;SDS011;5026;51.494;11.974;2023-02-23T01:35:02;24.13;;;14.50;;
9970;SDS011;5026;51.494;11.974;2023-02-23T01:37:30;24.03;;;14.57;;
9970;SDS011;5026;51.494;11.974;2023-02-23T01:40:00;25.13;;;14.40;;
9970;SDS011;5026;51.494;11.974;2023-02-23T01:42:30;26.83;;;13.70;;
9970;SDS011;5026;51.494;11.974;2023-02-23T01:47:47;32.43;;;14.83;;
9970;SDS011;5026;51.494;11.974;2023-02-23T01:50:17;27.07;;;14.00;;
9970;SDS011;5026;51.494;11.974;2023-02-23T01:52:44;24.07;;;13.97;;
9970;SDS011;5026;51.494;11.974;2023-02-23T01:55:15;26.93;;;15.03;;
9970;SDS011;5026;51.494;11.974;2023-02-23T01:57:48;27.53;;;14.70;;
9970;SDS011;5026;51.494;11.974;2023-02-23T02:00:18;29.00;;;15.37;;
9970;SDS011;5026;51.494;11.974;2023-02-23T02:02:49;26.13;;;15.47;;
9970;SDS011;5026;51.494;11.974;2023-02-23T02:05:19;29.80;;;14.90;;
9970;SDS011;5026;51.494;11.974;2023-02-23T02:07:46;22.73;;;13.33;;
9970;SDS011;5026;51.494;11.974;2023-02-23T02:10:22;28.00;;;14.67;;
9970;SDS011;5026;51.494;11.974;2023-02-23T02:13:09;26.03;;;14.27;;
9970;SDS011;5026;51.494;11.974;2023-02-23T02:15:55;24.73;;;13.30;;
9970;SDS011;5026;51.494;11.974;2023-02-23T02:18:48;27.07;;;14.43;;
9970;SDS011;5026;51.494;11.974;2023-02-23T02:24:51;24.80;;;14.03;;
9970;SDS011;5026;51.494;11.974;2023-02-23T02:30:42;30.17;;;14.30;;
9970;SDS011;5026;51.494;11.974;2023-02-23T02:33:35;24.53;;;14.13;;
9970;SDS011;5026;51.494;11.974;2023-02-23T02:36:38;25.67;;;14.43;;
9970;SDS011;5026;51.494;11.974;2023-02-23T02:39:24;25.97;;;14.80;;
9970;SDS011;5026;51.494;11.974;2023-02-23T02:42:03;25.13;;;14.27;;
9970;SDS011;5026;51.494;11.974;2023-02-23T02:44:39;27.20;;;14.77;;
9970;SDS011;5026;51.494;11.974;2023-02-23T02:47:15;25.63;;;15.87;;
9970;SDS011;5026;51.494;11.974;2023-02-23T02:49:46;24.73;;;13.77;;
9970;SDS011;5026;51.494;11.974;2023-02-23T02:52:18;32.17;;;15.33;;
9970;SDS011;5026;51.494;11.974;2023-02-23T02:54:51;22.23;;;13.43;;
9970;SDS011;5026;51.494;11.974;2023-02-23T02:57:21;27.23;;;14.23;;
9970;SDS011;5026;51.494;11.974;2023-02-23T02:59:52;29.17;;;15.20;;
9970;SDS011;5026;51.494;11.974;2023-02-23T03:02:37;25.43;;;14.93;;
9970;SDS011;5026;51.494;11.974;2023-02-23T03:05:24;27.83;;;14.93;;
9970;SDS011;5026;51.494;11.974;2023-02-23T03:08:16;26.47;;;15.00;;
9970;SDS011;5026;51.494;11.974;2023-02-23T03:11:04;28.67;;;14.93;;
9970;SDS011;5026;51.494;11.974;2023-02-23T03:13:53;30.07;;;16.13;;
9970;SDS011;5026;51.494;11.974;2023-02-23T03:16:48;26.40;;;14.77;;
9970;SDS011;5026;51.494;11.974;2023-02-23T03:19:40;28.57;;;15.20;;
9970;SDS011;5026;51.494;11.974;2023-02-23T03:22:37;28.40;;;14.83;;
9970;SDS011;5026;51.494;11.974;2023-02-23T03:25:27;30.30;;;14.37;;
9970;SDS011;5026;51.494;11.974;2023-02-23T03:28:18;26.23;;;13.63;;
9970;SDS011;5026;51.494;11.974;2023-02-23T03:31:09;25.77;;;14.27;;
9970;SDS011;5026;51.494;11.974;2023-02-23T03:34:04;27.33;;;14.40;;
9970;SDS011;5026;51.494;11.974;2023-02-23T03:36:54;31.83;;;15.30;;
9970;SDS011;5026;51.494;11.974;2023-02-23T03:39:44;28.33;;;15.40;;
9970;SDS011;5026;51.494;11.974;2023-02-23T03:42:35;33.10;;;16.27;;
9970;SDS011;5026;51.494;11.974;2023-02-23T03:45:22;30.27;;;15.40;;
9970;SDS011;5026;51.494;11.974;2023-02-23T03:48:08;28.27;;;15.77;;
9970;SDS011;5026;51.494;11.974;2023-02-23T03:50:55;27.33;;;15.10;;
9970;SDS011;5026;51.494;11.974;2023-02-23T03:53:43;27.80;;;14.57;;
9970;SDS011;5026;51.494;11.974;2023-02-23T03:56:34;27.87;;;14.83;;
9970;SDS011;5026;51.494;11.974;2023-02-23T03:59:23;30.37;;;15.73;;
9970;SDS011;5026;51.494;11.974;2023-02-23T04:02:11;29.33;;;15.73;;
9970;SDS011;5026;51.494;11.974;2023-02-23T04:04:59;30.60;;;15.93;;
9970;SDS011;5026;51.494;11.974;2023-02-23T04:07:47;29.13;;;14.90;;
9970;SDS011;5026;51.494;11.974;2023-02-23T04:10:34;29.23;;;15.13;;
9970;SDS011;5026;51.494;11.974;2023-02-23T04:13:23;26.87;;;14.50;;
9970;SDS011;5026;51.494;11.974;2023-02-23T04:15:53;25.90;;;15.07;;
9970;SDS011;5026;51.494;11.974;2023-02-23T04:18:22;27.73;;;14.70;;
9970;SDS011;5026;51.494;11.974;2023-02-23T04:20:51;26.90;;;14.90;;
9970;SDS011;5026;51.494;11.974;2023-02-23T04:23:19;26.03;;;15.03;;
9970;SDS011;5026;51.494;11.974;2023-02-23T04:25:47;28.20;;;15.57;;
9970;SDS011;5026;51.494;11.974;2023-02-23T04:28:14;26.40;;;14.53;;
9970;SDS011;5026;51.494;11.974;2023-02-23T04:30:41;27.83;;;15.50;;
9970;SDS011;5026;51.494;11.974;2023-02-23T04:33:09;29.47;;;16.30;;
9970;SDS011;5026;51.494;11.974;2023-02-23T04:35:36;28.17;;;15.20;;
9970;SDS011;5026;51.494;11.974;2023-02-23T04:38:03;26.83;;;14.90;;
9970;SDS011;5026;51.494;11.974;2023-02-23T04:40:31;39.70;;;15.90;;
9970;SDS011;5026;51.494;11.974;2023-02-23T04:42:58;29.87;;;15.87;;
9970;SDS011;5026;51.494;11.974;2023-02-23T04:45:25;30.37;;;16.73;;
9970;SDS011;5026;51.494;11.974;2023-02-23T04:47:52;30.57;;;16.27;;
9970;SDS011;5026;51.494;11.974;2023-02-23T04:50:20;29.77;;;15.83;;
9970;SDS011;5026;51.494;11.974;2023-02-23T04:52:48;32.90;;;16.30;;
9970;SDS011;5026;51.494;11.974;2023-02-23T04:55:18;26.10;;;14.87;;
9970;SDS011;5026;51.494;11.974;2023-02-23T04:57:47;31.03;;;16.60;;
9970;SDS011;5026;51.494;11.974;2023-02-23T05:00:14;30.60;;;15.77;;
9970;SDS011;5026;51.494;11.974;2023-02-23T05:02:42;28.33;;;17.07;;
9970;SDS011;5026;51.494;11.974;2023-02-23T05:05:10;34.03;;;16.90;;
9970;SDS011;5026;51.494;11.974;2023-02-23T05:07:38;29.30;;;17.23;;
9970;SDS011;5026;51.494;11.974;2023-02-23T05:10:05;30.67;;;16.50;;
9970;SDS011;5026;51.494;11.974;2023-02-23T05:12:33;32.20;;;16.60;;
9970;SDS011;5026;51.494;11.974;2023-02-23T05:15:00;28.87;;;16.60;;
9970;SDS011;5026;51.494;11.974;2023-02-23T05:17:27;33.57;;;17.17;;
9970;SDS011;5026;51.494;11.974;2023-02-23T05:19:54;32.33;;;17.00;;
9970;SDS011;5026;51.494;11.974;2023-02-23T05:22:21;32.83;;;16.90;;
9970;SDS011;5026;51.494;11.974;2023-02-23T05:24:49;30.97;;;16.27;;
9970;SDS011;5026;51.494;11.974;2023-02-23T05:27:16;31.27;;;16.13;;
9970;SDS011;5026;51.494;11.974;2023-02-23T05:29:44;29.93;;;17.03;;
9970;SDS011;5026;51.494;11.974;2023-02-23T05:32:10;31.83;;;15.87;;
9970;SDS011;5026;51.494;11.974;2023-02-23T05:34:37;30.90;;;17.07;;
9970;SDS011;5026;51.494;11.974;2023-02-23T05:37:04;31.43;;;16.37;;
9970;SDS011;5026;51.494;11.974;2023-02-23T05:39:31;30.00;;;16.97;;
9970;SDS011;5026;51.494;11.974;2023-02-23T05:42:00;31.03;;;15.97;;
9970;SDS011;5026;51.494;11.974;2023-02-23T05:44:27;31.57;;;16.50;;
9970;SDS011;5026;51.494;11.974;2023-02-23T05:46:54;27.83;;;16.27;;
9970;SDS011;5026;51.494;11.974;2023-02-23T05:49:20;30.43;;;16.47;;
9970;SDS011;5026;51.494;11.974;2023-02-23T05:51:48;33.67;;;16.73;;
9970;SDS011;5026;51.494;11.974;2023-02-23T05:54:18;29.33;;;15.77;;
9970;SDS011;5026;51.494;11.974;2023-02-23T05:56:45;28.80;;;15.60;;
9970;SDS011;5026;51.494;11.974;2023-02-23T05:59:14;32.73;;;16.97;;
9970;SDS011;5026;51.494;11.974;2023-02-23T06:01:41;30.57;;;16.07;;
9970;SDS011;5026;51.494;11.974;2023-02-23T06:04:08;34.87;;;18.50;;
9970;SDS011;5026;51.494;11.974;2023-02-23T06:06:35;30.73;;;17.03;;
9970;SDS011;5026;51.494;11.974;2023-02-23T06:09:02;33.53;;;17.43;;
9970;SDS011;5026;51.494;11.974;2023-02-23T06:11:30;35.73;;;17.57;;
9970;SDS011;5026;51.494;11.974;2023-02-23T06:13:57;34.37;;;18.57;;
9970;SDS011;5026;51.494;11.974;2023-02-23T06:16:26;31.37;;;17.07;;
9970;SDS011;5026;51.494;11.974;2023-02-23T06:18:53;33.00;;;17.33;;
9970;SDS011;5026;51.494;11.974;2023-02-23T06:21:20;30.40;;;15.90;;
9970;SDS011;5026;51.494;11.974;2023-02-23T06:23:47;33.60;;;16.47;;
9970;SDS011;5026;51.494;11.974;2023-02-23T06:26:14;32.40;;;17.33;;
9970;SDS011;5026;51.494;11.974;2023-02-23T06:28:41;33.10;;;17.27;;
9970;SDS011;5026;51.494;11.974;2023-02-23T06:31:08;33.33;;;16.33;;
9970;SDS011;5026;51.494;11.974;2023-02-23T06:33:37;31.67;;;17.33;;
9970;SDS011;5026;51.494;11.974;2023-02-23T06:36:04;30.70;;;15.83;;
9970;SDS011;5026;51.494;11.974;2023-02-23T06:38:31;32.87;;;16.70;;
9970;SDS011;5026;51.494;11.974;2023-02-23T06:40:58;26.07;;;14.83;;
9970;SDS011;5026;51.494;11.974;2023-02-23T06:43:25;33.53;;;16.43;;
9970;SDS011;5026;51.494;11.974;2023-02-23T06:45:52;31.77;;;16.40;;
9970;SDS011;5026;51.494;11.974;2023-02-23T06:48:19;33.43;;;16.13;;
9970;SDS011;5026;51.494;11.974;2023-02-23T06:50:47;34.23;;;16.60;;
9970;SDS011;5026;51.494;11.974;2023-02-23T06:53:14;28.13;;;15.70;;
9970;SDS011;5026;51.494;11.974;2023-02-23T06:55:42;29.03;;;15.23;;
9970;SDS011;5026;51.494;11.974;2023-02-23T06:58:09;32.63;;;16.23;;
9970;SDS011;5026;51.494;11.974;2023-02-23T07:00:36;30.27;;;15.73;;
9970;SDS011;5026;51.494;11.974;2023-02-23T07:03:06;34.00;;;15.93;;
9970;SDS011;5026;51.494;11.974;2023-02-23T07:05:33;38.47;;;17.60;;
9970;SDS011;5026;51.494;11.974;2023-02-23T07:08:02;29.77;;;14.43;;
9970;SDS011;5026;51.494;11.974;2023-02-23T07:10:29;30.20;;;15.07;;
9970;SDS011;5026;51.494;11.974;2023-02-23T07:12:56;32.67;;;16.70;;
9970;SDS011;5026;51.494;11.974;2023-02-23T07:15:23;38.17;;;15.77;;
9970;SDS011;5026;51.494;11.974;2023-02-23T07:17:50;36.80;;;15.97;;
9970;SDS011;5026;51.494;11.974;2023-02-23T07:20:17;32.07;;;15.87;;
9970;SDS011;5026;51.494;11.974;2023-02-23T07:22:44;36.63;;;16.20;;
9970;SDS011;5026;51.494;11.974;2023-02-23T07:25:13;34.83;;;16.00;;
9970;SDS011;5026;51.494;11.974;2023-02-23T07:27:40;31.53;;;14.80;;
9970;SDS011;5026;51.494;11.974;2023-02-23T07:30:09;31.30;;;16.17;;
9970;SDS011;5026;51.494;11.974;2023-02-23T07:32:36;32.60;;;16.03;;
9970;SDS011;5026;51.494;11.974;2023-02-23T07:35:04;30.20;;;16.27;;
9970;SDS011;5026;51.494;11.974;2023-02-23T07:37:31;29.77;;;16.63;;
9970;SDS011;5026;51.494;11.974;2023-02-23T07:39:58;32.63;;;16.60;;
9970;SDS011;5026;51.494;11.974;2023-02-23T07:42:27;30.27;;;16.47;;
9970;SDS011;5026;51.494;11.974;2023-02-23T07:44:54;33.57;;;15.90;;
9970;SDS011;5026;51.494;11.974;2023-02-23T07:47:21;28.13;;;15.07;;
9970;SDS011;5026;51.494;11.974;2023-02-23T07:49:55;31.40;;;17.73;;
9970;SDS011;5026;51.494;11.974;2023-02-23T07:52:22;31.07;;;16.80;;
9970;SDS011;5026;51.494;11.974;2023-02-23T07:54:49;31.43;;;16.80;;
9970;SDS011;5026;51.494;11.974;2023-02-23T07:57:16;27.50;;;15.27;;
9970;SDS011;5026;51.494;11.974;2023-02-23T07:59:46;28.53;;;14.90;;
9970;SDS011;5026;51.494;11.974;2023-02-23T08:02:13;32.77;;;15.93;;
9970;SDS011;5026;51.494;11.974;2023-02-23T08:04:40;30.53;;;15.23;;
9970;SDS011;5026;51.494;11.974;2023-02-23T08:07:07;30.93;;;17.20;;
9970;SDS011;5026;51.494;11.974;2023-02-23T08:09:35;32.30;;;16.37;;
9970;SDS011;5026;51.494;11.974;2023-02-23T08:12:02;26.07;;;15.23;;
9970;SDS011;5026;51.494;11.974;2023-02-23T08:14:29;27.37;;;16.40;;
9970;SDS011;5026;51.494;11.974;2023-02-23T08:16:58;31.47;;;15.83;;
9970;SDS011;5026;51.494;11.974;2023-02-23T08:19:25;28.37;;;16.13;;
9970;SDS011;5026;51.494;11.974;2023-02-23T08:21:52;28.33;;;16.00;;
9970;SDS011;5026;51.494;11.974;2023-02-23T08:24:20;29.90;;;16.93;;
9970;SDS011;5026;51.494;11.974;2023-02-23T08:26:47;31.27;;;16.57;;
9970;SDS011;5026;51.494;11.974;2023-02-23T08:29:15;25.90;;;16.10;;
9970;SDS011;5026;51.494;11.974;2023-02-23T08:31:42;28.10;;;16.43;;
9970;SDS011;5026;51.494;11.974;2023-02-23T08:34:11;27.70;;;15.60;;
9970;SDS011;5026;51.494;11.974;2023-02-23T08:36:38;28.77;;;17.20;;
9970;SDS011;5026;51.494;11.974;2023-02-23T08:39:06;26.70;;;15.90;;
9970;SDS011;5026;51.494;11.974;2023-02-23T08:41:34;32.43;;;16.67;;
9970;SDS011;5026;51.494;11.974;2023-02-23T08:44:01;31.33;;;16.13;;
9970;SDS011;5026;51.494;11.974;2023-02-23T08:46:28;31.57;;;16.03;;
9970;SDS011;5026;51.494;11.974;2023-02-23T08:48:55;31.92;;;16.98;;
9970;SDS011;5026;51.494;11.974;2023-02-23T08:51:24;28.42;;;16.42;;
9970;SDS011;5026;51.494;11.974;2023-02-23T08:53:50;26.57;;;15.63;;
9970;SDS011;5026;51.494;11.974;2023-02-23T08:56:17;31.00;;;16.88;;
9970;SDS011;5026;51.494;11.974;2023-02-23T08:58:44;28.88;;;16.55;;
9970;SDS011;5026;51.494;11.974;2023-02-23T09:01:15;29.27;;;16.25;;
9970;SDS011;5026;51.494;11.974;2023-02-23T09:03:45;31.23;;;16.23;;
9970;SDS011;5026;51.494;11.974;2023-02-23T09:06:14;31.02;;;17.95;;
9970;SDS011;5026;51.494;11.974;2023-02-23T09:08:44;29.27;;;17.67;;
9970;SDS011;5026;51.494;11.974;2023-02-23T09:11:11;26.35;;;15.70;;
9970;SDS011;5026;51.494;11.974;2023-02-23T09:13:37;31.42;;;15.55;;
9970;SDS011;5026;51.494;11.974;2023-02-23T09:16:05;25.60;;;16.30;;
9970;SDS011;5026;51.494;11.974;2023-02-23T09:18:32;28.90;;;16.33;;
9970;SDS011;5026;51.494;11.974;2023-02-23T09:21:01;26.67;;;16.60;;
9970;SDS011;5026;51.494;11.974;2023-02-23T09:23:32;26.35;;;16.67;;
9970;SDS011;5026;51.494;11.974;2023-02-23T09:26:03;27.25;;;17.08;;
9970;SDS011;5026;51.494;11.974;2023-02-23T09:28:30;26.98;;;16.20;;
9970;SDS011;5026;51.494;11.974;2023-02-23T09:30:58;28.20;;;17.27;;
9970;SDS011;5026;51.494;11.974;2023-02-23T09:33:31;30.88;;;16.83;;
9970;SDS011;5026;51.494;11.974;2023-02-23T09:35:58;26.02;;;16.23;;
9970;SDS011;5026;51.494;11.974;2023-02-23T09:38:25;25.23;;;16.33;;
9970;SDS011;5026;51.494;11.974;2023-02-23T09:40:52;27.67;;;16.73;;
9970;SDS011;5026;51.494;11.974;2023-02-23T09:43:22;27.85;;;16.02;;
9970;SDS011;5026;51.494;11.974;2023-02-23T09:45:55;27.88;;;16.98;;
9970;SDS011;5026;51.494;11.974;2023-02-23T09:48:28;29.05;;;16.83;;
9970;SDS011;5026;51.494;11.974;2023-02-23T09:50:56;32.63;;;16.42;;
9970;SDS011;5026;51.494;11.974;2023-02-23T09:53:26;29.00;;;16.90;;
9970;SDS011;5026;51.494;11.974;2023-02-23T09:55:56;26.63;;;16.27;;
9970;SDS011;5026;51.494;11.974;2023-02-23T09:58:26;31.25;;;18.25;;
9970;SDS011;5026;51.494;11.974;2023-02-23T10:01:00;28.58;;;16.83;;
9970;SDS011;5026;51.494;11.974;2023-02-23T10:03:49;27.25;;;17.60;;
9970;SDS011;5026;51.494;11.974;2023-02-23T10:06:23;28.33;;;17.38;;
9970;SDS011;5026;51.494;11.974;2023-02-23T10:08:53;28.33;;;17.35;;
9970;SDS011;5026;51.494;11.974;2023-02-23T10:11:32;33.90;;;18.35;;
9970;SDS011;5026;51.494;11.974;2023-02-23T10:17:03;32.08;;;17.80;;
9970;SDS011;5026;51.494;11.974;2023-02-23T10:19:42;31.58;;;19.08;;
9970;SDS011;5026;51.494;11.974;2023-02-23T10:22:15;37.38;;;21.02;;
9970;SDS011;5026;51.494;11.974;2023-02-23T10:24:46;34.53;;;20.42;;
9970;SDS011;5026;51.494;11.974;2023-02-23T10:27:18;33.08;;;19.05;;
9970;SDS011;5026;51.494;11.974;2023-02-23T10:29:49;34.28;;;20.23;;
9970;SDS011;5026;51.494;11.974;2023-02-23T10:32:20;34.75;;;20.75;;
9970;SDS011;5026;51.494;11.974;2023-02-23T10:34:52;37.30;;;22.08;;
9970;SDS011;5026;51.494;11.974;2023-02-23T10:37:21;37.97;;;20.80;;
9970;SDS011;5026;51.494;11.974;2023-02-23T10:39:49;41.45;;;22.13;;
9970;SDS011;5026;51.494;11.974;2023-02-23T10:42:19;39.03;;;22.52;;
9970;SDS011;5026;51.494;11.974;2023-02-23T10:44:53;35.78;;;21.17;;
9970;SDS011;5026;51.494;11.974;2023-02-23T10:47:23;41.67;;;21.52;;
9970;SDS011;5026;51.494;11.974;2023-02-23T10:49:52;39.40;;;22.67;;
9970;SDS011;5026;51.494;11.974;2023-02-23T10:52:21;39.38;;;23.08;;
9970;SDS011;5026;51.494;11.974;2023-02-23T10:54:54;41.78;;;23.40;;
9970;SDS011;5026;51.494;11.974;2023-02-23T10:57:23;42.70;;;22.73;;
9970;SDS011;5026;51.494;11.974;2023-02-23T10:59:59;46.97;;;23.98;;
9970;SDS011;5026;51.494;11.974;2023-02-23T11:02:41;40.83;;;23.55;;
9970;SDS011;5026;51.494;11.974;2023-02-23T11:05:25;42.50;;;23.60;;
9970;SDS011;5026;51.494;11.974;2023-02-23T11:08:24;39.85;;;23.80;;
9970;SDS011;5026;51.494;11.974;2023-02-23T11:10:55;43.40;;;22.98;;
9970;SDS011;5026;51.494;11.974;2023-02-23T11:13:25;40.90;;;23.15;;
9970;SDS011;5026;51.494;11.974;2023-02-23T11:16:01;42.75;;;23.60;;
9970;SDS011;5026;51.494;11.974;2023-02-23T11:18:30;41.58;;;23.90;;
9970;SDS011;5026;51.494;11.974;2023-02-23T11:20:57;40.08;;;24.50;;
9970;SDS011;5026;51.494;11.974;2023-02-23T11:23:26;40.90;;;24.00;;
9970;SDS011;5026;51.494;11.974;2023-02-23T11:25:55;41.60;;;24.42;;
9970;SDS011;5026;51.494;11.974;2023-02-23T11:28:26;44.05;;;24.58;;
9970;SDS011;5026;51.494;11.974;2023-02-23T11:30:57;44.53;;;24.05;;
9970;SDS011;5026;51.494;11.974;2023-02-23T11:33:29;43.60;;;23.80;;
9970;SDS011;5026;51.494;11.974;2023-02-23T11:36:11;46.65;;;24.27;;
9970;SDS011;5026;51.494;11.974;2023-02-23T11:38:40;50.53;;;26.55;;
9970;SDS011;5026;51.494;11.974;2023-02-23T11:41:16;50.78;;;27.00;;
9970;SDS011;5026;51.494;11.974;2023-02-23T11:43:46;45.72;;;25.67;;
9970;SDS011;5026;51.494;11.974;2023-02-23T11:46:16;52.35;;;27.98;;
9970;SDS011;5026;51.494;11.974;2023-02-23T11:48:47;51.47;;;27.55;;
9970;SDS011;5026;51.494;11.974;2023-02-23T11:51:23;52.17;;;28.10;;
9970;SDS011;5026;51.494;11.974;2023-02-23T11:53:53;52.50;;;27.60;;
9970;SDS011;5026;51.494;11.974;2023-02-23T11:56:21;49.50;;;26.38;;
9970;SDS011;5026;51.494;11.974;2023-02-23T11:58:50;54.22;;;27.42;;
9970;SDS011;5026;51.494;11.974;2023-02-23T12:01:22;51.55;;;27.27;;
9970;SDS011;5026;51.494;11.974;2023-02-23T12:03:59;51.08;;;26.00;;
9970;SDS011;5026;51.494;11.974;2023-02-23T12:06:28;47.55;;;26.30;;
9970;SDS011;5026;51.494;11.974;2023-02-23T12:08:58;48.75;;;27.27;;
9970;SDS011;5026;51.494;11.974;2023-02-23T12:11:32;54.75;;;27.67;;
9970;SDS011;5026;51.494;11.974;2023-02-23T12:14:06;53.97;;;28.45;;
9970;SDS011;5026;51.494;11.974;2023-02-23T12:16:41;51.42;;;26.80;;
9970;SDS011;5026;51.494;11.974;2023-02-23T12:19:18;47.95;;;26.50;;
9970;SDS011;5026;51.494;11.974;2023-02-23T12:21:50;52.83;;;27.17;;
9970;SDS011;5026;51.494;11.974;2023-02-23T12:24:27;48.33;;;26.10;;
9970;SDS011;5026;51.494;11.974;2023-02-23T12:27:03;52.38;;;27.08;;
9970;SDS011;5026;51.494;11.974;2023-02-23T12:29:38;51.25;;;27.08;;
9970;SDS011;5026;51.494;11.974;2023-02-23T12:32:16;46.83;;;25.02;;
9970;SDS011;5026;51.494;11.974;2023-02-23T12:34:48;51.92;;;26.17;;
9970;SDS011;5026;51.494;11.974;2023-02-23T12:37:25;48.90;;;25.67;;
9970;SDS011;5026;51.494;11.974;2023-02-23T12:40:03;47.40;;;25.63;;
9970;SDS011;5026;51.494;11.974;2023-02-23T12:42:39;45.13;;;25.75;;
9970;SDS011;5026;51.494;11.974;2023-02-23T12:45:14;42.05;;;24.55;;
9970;SDS011;5026;51.494;11.974;2023-02-23T12:47:51;50.05;;;25.50;;
9970;SDS011;5026;51.494;11.974;2023-02-23T12:50:25;49.20;;;26.10;;
9970;SDS011;5026;51.494;11.974;2023-02-23T12:52:55;45.63;;;24.95;;
9970;SDS011;5026;51.494;11.974;2023-02-23T12:55:30;52.33;;;26.40;;
9970;SDS011;5026;51.494;11.974;2023-02-23T12:58:05;49.53;;;26.38;;
9970;SDS011;5026;51.494;11.974;2023-02-23T13:00:43;54.17;;;27.17;;
9970;SDS011;5026;51.494;11.974;2023-02-23T13:06:17;46.75;;;24.63;;
9970;SDS011;5026;51.494;11.974;2023-02-23T13:09:00;48.45;;;25.75;;
9970;SDS011;5026;51.494;11.974;2023-02-23T13:14:26;58.00;;;28.02;;
9970;SDS011;5026;51.494;11.974;2023-02-23T13:17:01;50.35;;;26.88;;
9970;SDS011;5026;51.494;11.974;2023-02-23T13:19:34;47.50;;;26.98;;
9970;SDS011;5026;51.494;11.974;2023-02-23T13:22:14;51.45;;;26.60;;
9970;SDS011;5026;51.494;11.974;2023-02-23T13:24:52;50.55;;;26.70;;
9970;SDS011;5026;51.494;11.974;2023-02-23T13:27:24;51.85;;;27.17;;
9970;SDS011;5026;51.494;11.974;2023-02-23T13:29:55;48.88;;;26.48;;
9970;SDS011;5026;51.494;11.974;2023-02-23T13:32:24;51.20;;;25.48;;
9970;SDS011;5026;51.494;11.974;2023-02-23T13:34:56;50.17;;;26.98;;
9970;SDS011;5026;51.494;11.974;2023-02-23T13:37:27;50.75;;;25.80;;
9970;SDS011;5026;51.494;11.974;2023-02-23T13:40:00;53.03;;;27.65;;
9970;SDS011;5026;51.494;11.974;2023-02-23T13:42:39;50.05;;;26.08;;
9970;SDS011;5026;51.494;11.974;2023-02-23T13:45:17;57.17;;;28.02;;
9970;SDS011;5026;51.494;11.974;2023-02-23T13:48:05;53.33;;;26.70;;
9970;SDS011;5026;51.494;11.974;2023-02-23T13:50:43;55.13;;;27.90;;
9970;SDS011;5026;51.494;11.974;2023-02-23T13:53:37;53.55;;;27.90;;
9970;SDS011;5026;51.494;11.974;2023-02-23T13:56:06;54.22;;;27.83;;
9970;SDS011;5026;51.494;11.974;2023-02-23T13:58:35;51.50;;;28.73;;
9970;SDS011;5026;51.494;11.974;2023-02-23T14:01:10;51.70;;;27.80;;
9970;SDS011;5026;51.494;11.974;2023-02-23T14:03:43;56.15;;;28.23;;
9970;SDS011;5026;51.494;11.974;2023-02-23T14:06:18;54.80;;;27.52;;
9970;SDS011;5026;51.494;11.974;2023-02-23T14:08:51;50.30;;;27.02;;
9970;SDS011;5026;51.494;11.974;2023-02-23T14:11:27;55.45;;;26.88;;
9970;SDS011;5026;51.494;11.974;2023-02-23T14:14:02;50.05;;;27.27;;
9970;SDS011;5026;51.494;11.974;2023-02-23T14:16:29;52.47;;;27.38;;
9970;SDS011;5026;51.494;11.974;2023-02-23T14:22:01;54.05;;;28.65;;
9970;SDS011;5026;51.494;11.974;2023-02-23T14:24:31;56.22;;;28.98;;
9970;SDS011;5026;51.494;11.974;2023-02-23T14:27:15;52.22;;;27.80;;
9970;SDS011;5026;51.494;11.974;2023-02-23T14:32:49;58.78;;;29.88;;
9970;SDS011;5026;51.494;11.974;2023-02-23T14:38:08;50.10;;;27.27;;
9970;SDS011;5026;51.494;11.974;2023-02-23T14:40:39;62.58;;;29.08;;
9970;SDS011;5026;51.494;11.974;2023-02-23T14:45:58;56.72;;;28.90;;
9970;SDS011;5026;51.494;11.974;2023-02-23T14:48:29;60.45;;;30.15;;
9970;SDS011;5026;51.494;11.974;2023-02-23T14:51:10;61.10;;;31.05;;
9970;SDS011;5026;51.494;11.974;2023-02-23T14:53:42;60.78;;;29.95;;
9970;SDS011;5026;51.494;11.974;2023-02-23T14:56:17;60.35;;;30.75;;
9970;SDS011;5026;51.494;11.974;2023-02-23T14:58:48;60.60;;;30.52;;
9970;SDS011;5026;51.494;11.974;2023-02-23T15:01:30;57.67;;;30.17;;
9970;SDS011;5026;51.494;11.974;2023-02-23T15:04:08;61.78;;;29.65;;
9970;SDS011;5026;51.494;11.974;2023-02-23T15:06:37;62.88;;;32.40;;
9970;SDS011;5026;51.494;11.974;2023-02-23T15:09:07;68.45;;;32.25;;
9970;SDS011;5026;51.494;11.974;2023-02-23T15:11:40;66.28;;;31.92;;
9970;SDS011;5026;51.494;11.974;2023-02-23T15:14:10;67.45;;;31.20;;
9970;SDS011;5026;51.494;11.974;2023-02-23T15:16:40;65.43;;;31.15;;
9970;SDS011;5026;51.494;11.974;2023-02-23T15:19:09;68.30;;;33.03;;
9970;SDS011;5026;51.494;11.974;2023-02-23T15:21:42;72.78;;;32.63;;
9970;SDS011;5026;51.494;11.974;2023-02-23T15:24:15;65.40;;;32.30;;
9970;SDS011;5026;51.494;11.974;2023-02-23T15:26:46;69.95;;;33.15;;
9970;SDS011;5026;51.494;11.974;2023-02-23T15:29:15;73.47;;;33.60;;
9970;SDS011;5026;51.494;11.974;2023-02-23T15:31:44;70.37;;;32.73;;